Time;durP1;ratioP1;P1;durP2;ratioP2;P2;SDS_P1;SDS_P2;PMS_P1;PMS_P2;Temp;Humidity;BMP_temperature;BMP_pressure;BME280_temperature;BME280_humidity;BME280_pressure;Samples;Min_cycle;Max_cycle;Signal;HPM_P1;HPM_P2
2023/06/03 00:02:31;;;;;;;8.33;3.40;;;;;;;;;;10046498;29;20214;-77
2023/06/03 00:15:00;;;;;;;8.27;3.70;;;;;;;;;;10078360;29;20210;-77
2023/06/03 00:20:25;;;;;;;11.17;3.30;;;;;;;;;;10029166;29;20244;-78
2023/06/03 00:25:47;;;;;;;6.00;3.10;;;;;;;;;;10058038;29;20208;-78
2023/06/03 00:31:08;;;;;;;6.07;3.07;;;;;;;;;;10067292;29;20232;-79
2023/06/03 00:36:29;;;;;;;6.33;2.90;;;;;;;;;;10031696;29;20399;-77
2023/06/03 00:41:51;;;;;;;4.53;2.70;;;;;;;;;;10056565;29;20202;-78
2023/06/03 00:47:14;;;;;;;8.40;2.90;;;;;;;;;;10041550;29;20238;-77
2023/06/03 00:52:38;;;;;;;4.57;3.17;;;;;;;;;;10044415;29;20214;-79
2023/06/03 00:58:00;;;;;;;6.23;3.50;;;;;;;;;;10050528;29;20396;-77
2023/06/03 01:03:22;;;;;;;5.40;3.50;;;;;;;;;;10068096;29;20205;-77
2023/06/03 01:09:05;;;;;;;7.70;3.50;;;;;;;;;;10040974;29;20563;-78
2023/06/03 01:14:29;;;;;;;6.87;3.67;;;;;;;;;;10044092;29;20434;-77
2023/06/03 01:19:52;;;;;;;7.73;4.30;;;8.60;99.90;;;;;;10077178;29;20456;-78
2023/06/03 01:25:20;;;;;;;7.47;4.20;;;8.50;99.90;;;;;;10076934;29;20212;-76
2023/06/03 01:30:42;;;;;;;6.17;3.40;;;8.40;99.90;;;;;;10063297;29;20560;-76
2023/06/03 01:36:04;;;;;;;6.17;4.00;;;;;;;;;;10079475;29;20199;-78
2023/06/03 01:41:27;;;;;;;5.17;2.60;;;;;;;;;;10057897;29;20510;-78
2023/06/03 01:46:48;;;;;;;4.53;2.80;;;;;;;;;;10041066;29;20530;-78
2023/06/03 01:52:10;;;;;;;5.90;2.63;;;;;;;;;;10042988;29;20213;-77
2023/06/03 01:57:32;;;;;;;4.17;2.73;;;;;;;;;;10041171;29;20255;-77
2023/06/03 02:02:55;;;;;;;5.37;2.97;;;;;;;;;;10047630;29;20212;-76
2023/06/03 02:08:17;;;;;;;5.60;3.07;;;;;;;;;;10083525;29;20246;-77
2023/06/03 02:13:39;;;;;;;5.20;2.90;;;;;;;;;;10061901;29;20216;-78
2023/06/03 02:19:04;;;;;;;7.73;3.10;;;;;;;;;;10079000;29;20425;-77
2023/06/03 02:24:31;;;;;;;7.27;3.70;;;;;;;;;;10080850;29;20241;-77
2023/06/03 02:29:53;;;;;;;5.87;3.73;;;;;;;;;;10085043;29;20305;-77
2023/06/03 02:35:15;;;;;;;6.07;2.90;;;;;;;;;;10076029;29;20386;-76
2023/06/03 02:40:37;;;;;;;8.07;3.40;;;;;;;;;;10051604;29;20231;-76
2023/06/03 02:45:58;;;;;;;5.13;3.43;;;;;;;;;;10082363;29;20204;-78
2023/06/03 02:51:20;;;;;;;8.03;4.20;;;;;;;;;;10079148;29;20319;-77
2023/06/03 02:56:42;;;;;;;4.27;3.07;;;;;;;;;;10020534;29;20229;-76
2023/06/03 03:02:04;;;;;;;5.83;3.43;;;;;;;;;;10045151;29;20304;-77
2023/06/03 03:07:26;;;;;;;7.10;4.40;;;;;;;;;;10066441;29;20228;-78
2023/06/03 03:12:48;;;;;;;5.70;3.60;;;7.60;99.90;;;;;;10068688;29;20211;-78
2023/06/03 03:18:10;;;;;;;5.37;3.83;;;8.00;1.00;;;;;;10069199;29;20302;-76
2023/06/03 03:23:32;;;;;;;7.57;4.43;;;7.80;99.90;;;;;;10081353;29;20233;-77
2023/06/03 03:28:55;;;;;;;7.43;4.03;;;7.60;1.00;;;;;;10083234;29;20226;-77
2023/06/03 03:34:18;;;;;;;6.50;3.67;;;7.60;1.00;;;;;;10057247;29;20211;-77
2023/06/03 03:39:40;;;;;;;11.80;4.20;;;7.70;1.00;;;;;;10044900;29;20227;-75
2023/06/03 03:45:15;;;;;;;13.13;6.30;;;7.80;1.00;;;;;;10046964;29;20217;-76
2023/06/03 03:50:47;;;;;;;11.37;5.93;;;8.00;1.00;;;;;;10044266;29;20226;-77
2023/06/03 03:56:19;;;;;;;11.33;6.67;;;8.20;1.00;;;;;;10068418;29;20299;-77
2023/06/03 04:01:44;;;;;;;12.23;6.50;;;8.40;1.00;;;;;;10068915;29;20259;-77
2023/06/03 04:07:20;;;;;;;10.63;5.73;;;8.50;1.00;;;;;;10080168;29;20218;-78
2023/06/03 04:12:42;;;;;;;9.27;5.37;;;8.60;99.90;;;;;;10078632;29;20477;-76
2023/06/03 04:18:06;;;;;;;7.27;4.30;;;8.60;99.90;;;;;;10066631;29;20251;-77
2023/06/03 04:23:28;;;;;;;8.93;5.13;;;8.70;99.90;;;;;;10060050;29;20240;-76
2023/06/03 04:28:50;;;;;;;9.73;4.97;;;8.80;99.90;;;;;;10042396;29;20282;-76
2023/06/03 04:34:12;;;;;;;11.63;5.63;;;8.90;99.90;;;;;;10046538;29;20204;-75
2023/06/03 04:39:33;;;;;;;7.53;4.47;;;9.10;99.90;;;;;;10029664;29;20499;-76
2023/06/03 04:44:59;;;;;;;6.83;3.60;;;9.30;99.90;;;;;;10045006;29;20380;-76
2023/06/03 04:50:27;;;;;;;5.67;3.30;;;9.40;99.90;;;;;;10028753;29;20248;-76
2023/06/03 04:55:51;;;;;;;5.83;3.00;;;9.60;99.90;;;;;;10041632;29;20406;-78
2023/06/03 05:01:17;;;;;;;4.53;3.00;;;9.60;99.90;;;;;;10055206;29;20374;-77
2023/06/03 05:06:39;;;;;;;6.23;3.27;;;9.90;99.90;;;;;;10071218;29;20437;-77
2023/06/03 05:12:01;;;;;;;4.90;2.33;;;10.10;16.80;;;;;;10066288;29;20235;-75
2023/06/03 05:17:24;;;;;;;3.30;1.90;;;10.30;1.00;;;;;;10047770;29;20208;-76
2023/06/03 05:22:46;;;;;;;4.47;2.17;;;10.40;1.00;;;;;;10043896;29;20256;-76
2023/06/03 05:28:08;;;;;;;4.30;1.93;;;10.60;1.00;;;;;;10069144;29;20527;-76
2023/06/03 05:33:32;;;;;;;2.63;1.30;;;10.80;1.00;;;;;;10073888;29;20241;-76
2023/06/03 05:38:59;;;;;;;3.00;1.43;;;11.00;1.00;;;;;;10027920;29;20214;-76
2023/06/03 05:44:21;;;;;;;2.47;1.63;;;11.10;1.00;;;;;;10052791;29;20222;-76
2023/06/03 05:49:43;;;;;;;2.17;1.10;;;11.20;99.90;;;;;;10040763;29;20297;-76
2023/06/03 05:55:05;;;;;;;1.80;0.93;;;11.40;99.90;;;;;;10017158;29;20241;-78
2023/06/03 06:00:27;;;;;;;2.40;1.02;;;11.60;99.90;;;;;;10047884;29;20281;-76
2023/06/03 06:05:50;;;;;;;2.90;0.93;;;11.80;99.90;;;;;;10058947;29;20270;-77
2023/06/03 06:11:12;;;;;;;3.35;0.98;;;12.00;99.90;;;;;;10078473;29;20245;-77
2023/06/03 06:16:33;;;;;;;1.40;0.85;;;12.20;99.90;;;;;;10073359;29;20200;-76
2023/06/03 06:21:55;;;;;;;1.27;0.82;;;12.50;99.90;;;;;;10078042;29;20256;-78
2023/06/03 06:27:18;;;;;;;1.70;0.88;;;12.80;99.90;;;;;;10057724;29;20208;-77
2023/06/03 06:32:44;;;;;;;0.60;0.52;;;13.10;99.90;;;;;;10026767;29;20227;-77
2023/06/03 06:38:07;;;;;;;0.95;0.82;;;13.50;99.90;;;;;;10046439;29;20279;-76
2023/06/03 06:43:28;;;;;;;1.88;0.80;;;14.10;99.90;;;;;;10069746;29;20486;-76
2023/06/03 06:48:54;;;;;;;2.05;0.60;;;14.60;99.90;;;;;;10042102;29;20237;-77
2023/06/03 06:54:19;;;;;;;2.47;0.60;;;15.20;1.60;;;;;;10044347;29;20197;-76
2023/06/03 06:59:41;;;;;;;0.93;0.60;;;15.70;15.70;;;;;;10057660;29;20226;-77
2023/06/03 07:05:02;;;;;;;3.53;0.50;;;;;;;;;;10056076;29;20209;-76
2023/06/03 07:10:24;;;;;;;1.42;0.98;;;16.80;99.90;;;;;;10045917;29;20229;-77
2023/06/03 07:15:46;;;;;;;2.70;1.30;;;;;;;;;;10050809;29;20207;-78
2023/06/03 07:21:07;;;;;;;3.85;1.33;;;17.60;99.90;;;;;;10045232;29;20243;-78
2023/06/03 07:26:31;;;;;;;2.05;1.35;;;17.90;1.00;;;;;;10061330;29;20219;-77
2023/06/03 07:31:54;;;;;;;4.82;2.97;;;18.30;99.90;;;;;;10045154;29;20271;-76
2023/06/03 07:37:17;;;;;;;0.80;0.65;;;;;;;;;;10034367;29;20257;-77
2023/06/03 07:42:40;;;;;;;0.80;0.63;;;19.20;99.90;;;;;;10055229;29;20198;-78
2023/06/03 07:48:07;;;;;;;0.93;0.75;;;19.50;99.90;;;;;;10058746;29;20227;-78
2023/06/03 07:53:30;;;;;;;0.90;0.60;;;19.60;99.90;;;;;;10044301;29;20203;-79
2023/06/03 07:58:54;;;;;;;1.70;0.60;;;;;;;;;;10047815;29;20210;-77
2023/06/03 08:04:32;;;;;;;4.57;0.73;;;20.20;1.00;;;;;;10051752;29;20211;-78
2023/06/03 08:09:55;;;;;;;3.25;0.63;;;;;;;;;;10081604;29;20560;-78
2023/06/03 08:15:22;;;;;;;3.38;0.75;;;;;;;;;;10074814;29;20269;-78
2023/06/03 08:20:43;;;;;;;0.50;0.50;;;21.30;1.00;;;;;;10096908;29;20534;-78
2023/06/03 08:26:05;;;;;;;4.72;0.70;;;21.50;99.90;;;;;;10097708;29;20221;-78
2023/06/03 08:31:26;;;;;;;3.00;0.82;;;21.50;1.00;;;;;;10106666;29;20290;-77
2023/06/03 08:36:48;;;;;;;3.17;0.70;;;;;;;;;;10103218;29;20221;-77
2023/06/03 08:42:13;;;;;;;1.05;0.70;;;;;;;;;;10061125;29;20218;-76
2023/06/03 08:48:00;;;;;;;1.13;0.60;;;22.10;99.90;;;;;;10056749;29;20282;-78
2023/06/03 08:53:22;;;;;;;0.75;0.70;;;22.60;99.90;;;;;;10074404;29;20243;-78
2023/06/03 08:58:55;;;;;;;2.08;0.90;;;22.60;99.90;;;;;;10067322;29;20198;-79
2023/06/03 09:04:17;;;;;;;1.17;0.60;;;23.00;99.90;;;;;;10070732;29;20209;-78
2023/06/03 09:09:40;;;;;;;1.67;0.73;;;23.10;99.90;;;;;;10064691;29;20607;-78
2023/06/03 09:15:02;;;;;;;1.05;0.73;;;22.80;99.90;;;;;;10048913;29;20246;-79
2023/06/03 09:20:24;;;;;;;1.15;0.60;;;23.40;99.90;;;;;;10041759;29;20238;-78
2023/06/03 09:25:45;;;;;;;1.10;0.60;;;23.60;99.90;;;;;;10042936;29;20210;-79
2023/06/03 09:31:07;;;;;;;0.60;0.60;;;24.10;99.90;;;;;;10040962;29;20239;-79
2023/06/03 09:36:28;;;;;;;1.73;0.43;;;24.10;99.90;;;;;;10041127;29;20282;-77
2023/06/03 09:41:50;;;;;;;0.90;0.60;;;23.90;99.90;;;;;;10058832;29;20216;-80
2023/06/03 09:47:12;;;;;;;0.63;0.40;;;24.10;99.90;;;;;;10083711;29;20447;-79
2023/06/03 09:52:35;;;;;;;0.95;0.60;;;23.90;99.90;;;;;;10058950;29;20238;-79
2023/06/03 09:58:15;;;;;;;0.43;0.38;;;24.00;99.90;;;;;;10040738;29;20536;-77
2023/06/03 10:03:36;;;;;;;2.50;0.98;;;24.10;99.90;;;;;;10045207;29;20392;-78
2023/06/03 10:09:00;;;;;;;3.47;0.70;;;24.20;99.90;;;;;;10065261;29;20305;-78
2023/06/03 10:14:25;;;;;;;8.02;0.90;;;23.90;99.90;;;;;;10055524;29;20252;-79
2023/06/03 10:19:47;;;;;;;10.20;1.52;;;23.60;99.90;;;;;;10063433;29;20243;-77
2023/06/03 10:25:09;;;;;;;1.98;0.77;;;23.90;99.90;;;;;;10042704;29;20211;-79
2023/06/03 10:30:35;;;;;;;4.35;0.70;;;24.20;99.90;;;;;;10046719;29;20597;-78
2023/06/03 10:35:57;;;;;;;2.13;0.50;;;24.50;99.90;;;;;;10074159;29;20210;-79
2023/06/03 10:41:20;;;;;;;4.40;0.80;;;24.80;99.90;;;;;;10084497;29;20489;-78
2023/06/03 10:46:51;;;;;;;12.10;0.63;;;25.30;99.90;;;;;;10047476;29;20195;-78
2023/06/03 10:52:25;;;;;;;6.68;1.02;;;25.10;99.90;;;;;;10067882;29;20226;-77
2023/06/03 10:57:51;;;;;;;5.25;0.70;;;25.00;99.90;;;;;;10085226;29;20270;-78
2023/06/03 11:03:16;;;;;;;13.18;1.00;;;25.30;99.90;;;;;;10049940;29;20211;-79
2023/06/03 11:09:02;;;;;;;2.80;0.63;;;25.40;99.90;;;;;;10048697;29;20285;-78
2023/06/03 11:14:27;;;;;;;3.58;0.65;;;25.40;99.90;;;;;;10046504;29;20278;-79
2023/06/03 11:19:55;;;;;;;2.17;0.93;;;25.60;99.90;;;;;;10047791;29;20247;-79
2023/06/03 11:25:26;;;;;;;3.95;0.82;;;25.40;99.90;;;;;;10041831;29;20206;-79
2023/06/03 11:30:57;;;;;;;37.85;2.40;;;25.20;99.90;;;;;;10067809;29;20241;-79
2023/06/03 11:36:45;;;;;;;0.80;0.80;;;24.80;99.90;;;;;;10031896;29;20399;-78
2023/06/03 11:42:08;;;;;;;0.57;0.52;;;25.00;99.90;;;;;;10051562;29;20206;-79
2023/06/03 11:47:56;;;;;;;12.32;1.67;;;25.40;99.90;;;;;;10082442;29;20206;-78
2023/06/03 11:53:35;;;;;;;0.80;0.80;;;25.40;99.90;;;;;;10059419;29;20210;-78
2023/06/03 11:58:58;;;;;;;1.40;0.50;;;25.00;99.90;;;;;;10080897;29;20203;-77
2023/06/03 12:04:19;;;;;;;0.52;0.45;;;25.20;99.90;;;;;;10051337;29;20387;-77
2023/06/03 12:09:41;;;;;;;3.22;0.90;;;24.50;99.90;;;;;;10075468;29;20442;-79
2023/06/03 12:15:06;;;;;;;0.88;0.45;;;23.90;99.90;;;;;;10043272;29;20203;-79
2023/06/03 12:20:29;;;;;;;2.33;0.70;;;23.20;99.90;;;;;;10051874;29;20246;-78
2023/06/03 12:25:55;;;;;;;1.17;0.70;;;22.40;99.90;;;;;;10072138;29;20494;-79
2023/06/03 12:31:18;;;;;;;1.58;0.85;;;;;;;;;;10080977;29;20418;-77
2023/06/03 12:36:46;;;;;;;1.63;0.70;;;22.40;1.00;;;;;;10064488;29;20285;-77
2023/06/03 12:42:08;;;;;;;1.95;0.93;;;23.30;1.00;;;;;;10062536;29;20296;-77
2023/06/03 12:47:40;;;;;;;1.92;0.73;;;23.60;1.00;;;;;;10063128;29;20237;-78
2023/06/03 12:53:14;;;;;;;2.70;0.82;;;23.20;1.00;;;;;;10042973;29;20450;-78
2023/06/03 12:58:35;;;;;;;1.42;0.70;;;22.60;1.00;;;;;;10054545;29;20211;-79
2023/06/03 13:03:56;;;;;;;1.77;0.88;;;22.20;1.00;;;;;;10041192;29;20516;-79
2023/06/03 13:09:18;;;;;;;2.08;0.75;;;22.30;1.00;;;;;;10044835;29;20230;-77
2023/06/03 13:14:39;;;;;;;2.13;0.68;;;22.60;99.90;;;;;;10040967;29;20210;-79
2023/06/03 13:20:04;;;;;;;0.55;0.55;;;23.00;1.00;;;;;;10044859;29;20243;-77
2023/06/03 13:25:26;;;;;;;1.10;0.68;;;22.80;1.00;;;;;;10037804;29;20210;-77
2023/06/03 13:30:50;;;;;;;1.15;0.70;;;23.00;1.00;;;;;;10041669;29;20297;-77
2023/06/03 13:36:11;;;;;;;0.90;0.40;;;22.70;1.00;;;;;;10044347;29;20209;-78
2023/06/03 13:41:33;;;;;;;0.70;0.40;;;22.10;1.00;;;;;;10056288;29;20234;-77
2023/06/03 13:46:54;;;;;;;0.98;0.65;;;21.70;1.00;;;;;;10067751;29;20221;-76
2023/06/03 13:52:16;;;;;;;1.58;0.80;;;21.30;99.90;;;;;;10046488;29;20222;-77
2023/06/03 14:04:58;;;;;;;1.75;0.70;;;21.60;99.90;;;;;;10094090;29;20205;-78
2023/06/03 14:10:19;;;;;;;0.60;0.60;;;21.40;99.90;;;;;;10104824;29;20240;-77
2023/06/03 14:15:42;;;;;;;0.50;0.50;;;21.10;99.90;;;;;;10108888;29;20206;-78
2023/06/03 14:21:03;;;;;;;4.45;1.40;;;20.80;99.90;;;;;;10117261;29;20272;-77
2023/06/03 14:26:26;;;;;;;2.70;0.80;;;20.80;99.90;;;;;;10120757;29;20206;-77
2023/06/03 14:31:47;;;;;;;1.95;1.00;;;20.90;99.90;;;;;;10105347;29;20315;-78
2023/06/03 14:37:09;;;;;;;3.42;0.80;;;20.70;99.90;;;;;;10082556;29;20493;-76
2023/06/03 14:42:30;;;;;;;2.33;0.90;;;20.80;99.90;;;;;;10072549;29;20208;-77
2023/06/03 14:47:51;;;;;;;1.33;0.95;;;20.80;99.90;;;;;;10073040;29;20400;-77
2023/06/03 14:53:12;;;;;;;2.47;1.40;;;20.90;99.90;;;;;;10058811;29;20227;-77
2023/06/03 14:58:33;;;;;;;2.30;1.85;;;21.10;99.90;;;;;;10062159;29;20203;-77
2023/06/03 15:03:55;;;;;;;2.35;1.02;;;21.20;99.90;;;;;;10050248;29;20206;-77
2023/06/03 15:09:16;;;;;;;1.70;1.00;;;21.40;99.90;;;;;;10064715;29;20230;-78
2023/06/03 15:14:37;;;;;;;1.55;0.93;;;21.30;99.90;;;;;;10045282;29;20206;-77
2023/06/03 15:19:58;;;;;;;0.95;0.70;;;21.30;99.90;;;;;;10055426;29;20265;-76
2023/06/03 15:25:20;;;;;;;3.22;0.98;;;21.00;99.90;;;;;;10084132;29;20202;-78
2023/06/03 15:30:41;;;;;;;2.15;1.13;;;20.80;99.90;;;;;;10070902;29;20274;-77
2023/06/03 15:36:04;;;;;;;3.55;0.80;;;20.90;99.90;;;;;;10045715;29;20196;-78
2023/06/03 15:41:26;;;;;;;0.50;0.50;;;20.80;99.90;;;;;;10062441;29;20210;-77
2023/06/03 15:46:47;;;;;;;0.73;0.60;;;20.60;99.90;;;;;;10070288;29;20255;-77
2023/06/03 15:52:09;;;;;;;0.82;0.73;;;20.50;99.90;;;;;;10058959;29;20540;-77
2023/06/03 15:57:30;;;;;;;1.85;0.82;;;20.40;99.90;;;;;;10045164;29;20200;-78
2023/06/03 16:02:52;;;;;;;2.35;0.70;;;20.30;99.90;;;;;;10050558;29;20211;-77
2023/06/03 16:08:13;;;;;;;3.20;1.05;;;20.20;99.90;;;;;;10081218;29;20208;-77
2023/06/03 16:13:34;;;;;;;1.50;0.90;;;20.20;99.90;;;;;;10048052;29;20512;-78
2023/06/03 16:18:55;;;;;;;1.50;0.88;;;20.10;99.90;;;;;;10043459;29;20520;-76
2023/06/03 16:24:17;;;;;;;3.50;0.75;;;20.10;99.90;;;;;;10045463;29;20601;-80
2023/06/03 16:29:38;;;;;;;1.15;0.60;;;20.00;99.90;;;;;;10060538;29;20424;-79
2023/06/03 16:35:02;;;;;;;0.82;0.55;;;20.00;99.90;;;;;;10043443;29;20223;-78
2023/06/03 16:40:23;;;;;;;1.20;0.88;;;19.90;99.90;;;;;;10051661;29;20501;-78
2023/06/03 16:45:46;;;;;;;0.85;0.73;;;19.60;99.90;;;;;;10081257;29;20198;-78
2023/06/03 16:51:07;;;;;;;3.28;1.27;;;19.60;99.90;;;;;;10071867;29;20835;-78
2023/06/03 16:56:30;;;;;;;1.25;0.90;;;19.40;99.90;;;;;;10080987;29;20195;-76
2023/06/03 17:08:18;;;;;;;5.07;1.60;;;19.20;99.90;;;;;;10022550;29;20235;-77
2023/06/03 17:13:40;;;;;;;2.42;1.25;;;19.20;99.90;;;;;;10033201;29;20274;-78
2023/06/03 17:19:01;;;;;;;1.50;1.20;;;19.30;99.90;;;;;;10036204;29;20533;-77
2023/06/03 17:24:22;;;;;;;2.17;1.05;;;19.30;99.90;;;;;;10017914;29;20227;-76
2023/06/03 17:29:44;;;;;;;1.90;1.60;;;19.20;99.90;;;;;;10016290;29;20269;-77
2023/06/03 17:35:05;;;;;;;2.38;1.42;;;19.20;99.90;;;;;;10024690;29;20263;-77
2023/06/03 17:40:27;;;;;;;4.95;2.47;;;19.10;99.90;;;;;;10017821;29;20211;-78
2023/06/03 17:45:49;;;;;;;8.43;2.10;;;;;;;;;;10079851;29;20199;-79
2023/06/03 17:51:10;;;;;;;5.75;2.78;;;;;;;;;;10059922;29;20239;-78
2023/06/03 17:56:32;;;;;;;4.55;2.65;;;;;;;;;;10069000;29;20203;-78
2023/06/03 18:01:54;;;;;;;3.75;1.58;;;;;;;;;;10054495;29;20240;-76
2023/06/03 18:07:15;;;;;;;4.00;1.90;;;;;;;;;;10070196;29;20250;-76
2023/06/03 18:12:37;;;;;;;4.15;2.63;;;;;;;;;;10050698;29;20257;-77
2023/06/03 18:18:01;;;;;;;5.05;2.55;;;;;;;;;;10040969;29;20432;-78
2023/06/03 18:23:23;;;;;;;4.25;3.25;;;;;;;;;;10053231;29;20250;-78
2023/06/03 18:28:45;;;;;;;5.93;2.13;;;;;;;;;;10072028;29;20282;-77
2023/06/03 18:34:07;;;;;;;3.55;1.35;;;;;;;;;;10078775;29;20227;-78
2023/06/03 18:39:28;;;;;;;5.07;3.28;;;16.40;99.90;;;;;;10067531;29;20206;-76
2023/06/03 18:44:49;;;;;;;3.25;2.22;;;16.20;99.90;;;;;;10073428;29;20212;-77
2023/06/03 18:50:11;;;;;;;2.75;1.40;;;16.00;99.90;;;;;;10077042;29;20280;-77
2023/06/03 18:55:32;;;;;;;2.92;1.42;;;15.90;99.90;;;;;;10065840;29;20208;-77
2023/06/03 19:00:54;;;;;;;2.97;1.15;;;;;;;;;;10047504;29;20215;-76
2023/06/03 19:06:15;;;;;;;2.85;1.20;;;15.60;99.90;;;;;;10084999;29;20504;-76
2023/06/03 19:11:37;;;;;;;2.53;1.33;;;15.50;99.90;;;;;;10051907;29;20229;-76
2023/06/03 19:16:59;;;;;;;3.92;1.40;;;15.40;99.90;;;;;;10032767;29;20194;-76
2023/06/03 19:22:20;;;;;;;2.67;1.73;;;15.40;99.90;;;;;;10056223;29;20265;-77
2023/06/03 19:27:41;;;;;;;1.65;1.38;;;15.40;99.90;;;;;;10071952;29;20210;-77
2023/06/03 19:33:02;;;;;;;2.10;1.63;;;15.30;99.90;;;;;;10046268;29;20255;-77
2023/06/03 19:38:24;;;;;;;2.22;1.55;;;14.80;1.00;;;;;;10051903;29;20201;-76
2023/06/03 19:43:45;;;;;;;6.13;2.00;;;15.00;1.00;;;;;;10069797;29;20254;-77
2023/06/03 19:49:06;;;;;;;4.75;1.45;;;14.90;1.00;;;;;;10072056;29;20282;-77
2023/06/03 19:54:28;;;;;;;4.38;2.17;;;14.90;1.00;;;;;;10063145;29;20259;-76
2023/06/03 19:59:51;;;;;;;4.90;2.17;;;14.80;52.30;;;;;;10052711;29;20269;-77
2023/06/03 20:05:12;;;;;;;3.47;2.50;;;;;;;;;;10057604;29;20206;-76
2023/06/03 20:10:36;;;;;;;3.97;2.63;;;;;;;;;;10047923;29;20455;-76
2023/06/03 20:15:57;;;;;;;4.47;2.50;;;;;;;;;;10044601;29;20388;-77
2023/06/03 20:21:19;;;;;;;5.63;2.60;;;;;;;;;;10060747;29;20312;-78
2023/06/03 20:26:42;;;;;;;4.32;2.17;;;;;;;;;;10064499;29;20229;-78
2023/06/03 20:32:04;;;;;;;4.70;2.08;;;;;;;;;;10050211;29;20245;-78
2023/06/03 20:37:27;;;;;;;5.70;2.15;;;;;;;;;;10042444;29;20289;-76
2023/06/03 20:42:49;;;;;;;6.38;2.03;;;;;;;;;;10046467;29;20220;-76
2023/06/03 20:48:11;;;;;;;2.63;1.80;;;13.30;32.10;;;;;;10044477;29;21598;-76
2023/06/03 20:53:32;;;;;;;3.92;2.83;;;13.80;99.90;;;;;;10053981;29;20231;-77
2023/06/03 20:58:54;;;;;;;4.80;3.33;;;13.60;99.90;;;;;;10076077;29;20201;-76
2023/06/03 21:04:16;;;;;;;8.00;3.17;;;13.50;99.90;;;;;;10049349;29;20526;-77
2023/06/03 21:09:38;;;;;;;4.30;2.87;;;13.40;99.90;;;;;;10070016;29;20527;-76
2023/06/03 21:14:59;;;;;;;4.78;3.25;;;13.40;99.90;;;;;;10042487;29;20507;-77
2023/06/03 21:37:11;;;;;;;4.90;3.17;;;13.20;1.00;;;;;;10040881;29;20204;-77
2023/06/03 21:49:06;;;;;;;7.57;3.22;;;13.00;1.00;;;;;;10014533;29;20242;-77
2023/06/03 21:54:28;;;;;;;7.07;3.15;;;13.00;1.00;;;;;;10018389;29;20385;-76
2023/06/03 22:05:09;;;;;;;2.97;2.10;;;12.90;1.00;;;;;;10010777;29;20230;-76
2023/06/03 22:10:30;;;;;;;5.70;3.20;;;12.80;1.00;;;;;;9999835;29;20465;-76
2023/06/03 22:15:51;;;;;;;8.18;3.50;;;12.80;1.00;;;;;;9998774;29;20213;-79
2023/06/03 22:21:13;;;;;;;12.23;4.68;;;12.80;1.00;;;;;;10017257;29;20223;-79
2023/06/03 22:26:35;;;;;;;9.95;4.95;;;12.80;1.00;;;;;;10062128;29;20213;-77
2023/06/03 22:31:56;;;;;;;14.23;6.10;;;12.70;1.00;;;;;;10046279;29;20255;-75
2023/06/03 22:37:17;;;;;;;16.73;5.07;;;12.60;1.00;;;;;;10034043;29;20200;-77
2023/06/03 22:42:38;;;;;;;12.73;4.93;;;12.60;1.00;;;;;;10049905;29;20209;-77
2023/06/03 22:47:59;;;;;;;14.80;6.80;;;12.60;1.00;;;;;;10046226;29;20388;-77
2023/06/03 22:53:21;;;;;;;12.52;6.90;;;12.50;1.00;;;;;;10051953;29;20231;-78
2023/06/03 22:58:42;;;;;;;11.15;6.82;;;12.40;1.00;;;;;;10046167;29;20282;-77
2023/06/03 23:04:03;;;;;;;10.60;6.63;;;12.30;99.90;;;;;;10054522;29;20200;-78
2023/06/03 23:09:25;;;;;;;12.30;7.07;;;12.30;99.90;;;;;;10085173;29;20199;-77
2023/06/03 23:14:45;;;;;;;11.85;6.93;;;12.20;99.90;;;;;;10068091;29;20536;-77
2023/06/03 23:20:24;;;;;;;11.05;5.60;;;12.10;99.90;;;;;;10045373;29;20503;-78
2023/06/03 23:25:45;;;;;;;12.32;6.65;;;12.00;1.00;;;;;;10062652;29;20242;-78
2023/06/03 23:31:06;;;;;;;17.73;7.07;;;11.90;1.00;;;;;;10069697;29;20328;-77
2023/06/03 23:36:29;;;;;;;10.88;5.38;;;12.00;47.00;;;;;;10076973;29;20214;-77
2023/06/03 23:41:51;;;;;;;12.52;5.38;;;11.80;99.90;;;;;;10082626;29;20210;-78
2023/06/03 23:52:32;;;;;;;12.73;4.88;;;;;;;;;;10048592;29;20548;-77
2023/06/03 23:57:54;;;;;;;12.75;5.28;;;11.30;99.90;;;;;;10052923;29;20272;-77
